Time;durP1;ratioP1;P1;durP2;ratioP2;P2;SDS_P1;SDS_P2;PMS_P1;PMS_P2;Temp;Humidity;BMP_temperature;BMP_pressure;BME280_temperature;BME280_humidity;BME280_pressure;Samples;Min_cycle;Max_cycle;Signal;HPM_P1;HPM_P2
2023/01/06 00:01:22;;;;;;;;;;;7.80;99.90;;;;;;5023961;28;1529;-74
2023/01/06 00:03:51;;;;;;;;;;;7.70;99.90;;;;;;5016555;28;1375;-73
2023/01/06 00:06:21;;;;;;;;;;;7.70;99.90;;;;;;5021309;28;1043;-73
2023/01/06 00:08:49;;;;;;;;;;;7.80;99.90;;;;;;5025555;28;1085;-73
2023/01/06 00:11:18;;;;;;;;;;;7.70;99.90;;;;;;5023033;28;1967;-73
2023/01/06 00:13:47;;;;;;;;;;;7.70;99.90;;;;;;5024953;28;1362;-74
2023/01/06 00:16:16;;;;;;;;;;;7.80;99.90;;;;;;5016664;28;1139;-73
2023/01/06 00:18:45;;;;;;;;;;;7.90;99.90;;;;;;5029610;28;1089;-73
2023/01/06 00:21:13;;;;;;;;;;;7.80;99.90;;;;;;5024472;28;1041;-73
2023/01/06 00:23:42;;;;;;;;;;;7.90;99.90;;;;;;5024552;28;1552;-73
2023/01/06 00:26:10;;;;;;;;;;;7.80;99.90;;;;;;5027455;28;1289;-73
2023/01/06 00:28:38;;;;;;;;;;;7.80;99.90;;;;;;5015169;28;1101;-73
2023/01/06 00:31:09;;;;;;;;;;;7.70;99.90;;;;;;5022741;28;1939;-75
2023/01/06 00:33:37;;;;;;;;;;;7.70;99.90;;;;;;5025320;28;1117;-74
2023/01/06 00:36:06;;;;;;;;;;;7.70;99.90;;;;;;5023289;28;1295;-75
2023/01/06 00:38:37;;;;;;;;;;;7.70;99.90;;;;;;5029639;28;1090;-75
2023/01/06 00:42:02;;;;;;;;;;;7.70;99.90;;;;;;5021974;28;1113;-74
2023/01/06 00:43:54;;;;;;;;;;;7.70;99.90;;;;;;5027560;28;1428;-73
2023/01/06 00:46:27;;;;;;;;;;;7.70;99.90;;;;;;5015484;28;1686;-72
2023/01/06 00:48:56;;;;;;;;;;;7.70;99.90;;;;;;5020730;28;1001;-74
2023/01/06 00:51:32;;;;;;;;;;;7.60;99.90;;;;;;5030471;28;1965;-73
2023/01/06 00:54:00;;;;;;;;;;;7.70;99.90;;;;;;5015746;28;1344;-74
2023/01/06 00:56:28;;;;;;;;;;;7.70;99.90;;;;;;5019047;28;1112;-74
2023/01/06 00:58:56;;;;;;;;;;;7.60;99.90;;;;;;5025819;28;1283;-73
2023/01/06 01:01:26;;;;;;;;;;;7.60;99.90;;;;;;5026817;28;1523;-73
2023/01/06 01:03:54;;;;;;;;;;;7.70;99.90;;;;;;5028275;28;1294;-75
2023/01/06 01:06:22;;;;;;;;;;;7.80;99.90;;;;;;5022219;28;1071;-75
2023/01/06 01:08:52;;;;;;;;;;;7.70;99.90;;;;;;5022515;28;1341;-74
2023/01/06 01:14:02;;;;;;;;;;;7.70;99.90;;;;;;5015656;28;1336;-73
2023/01/06 01:16:32;;;;;;;;;;;7.70;99.90;;;;;;5025057;28;1100;-73
2023/01/06 01:19:00;;;;;;;;;;;7.70;99.90;;;;;;5024840;28;1073;-74
2023/01/06 01:21:28;;;;;;;;;;;7.70;99.90;;;;;;5017540;28;1117;-73
2023/01/06 01:23:56;;;;;;;;;;;7.70;99.90;;;;;;5025977;28;1275;-72
2023/01/06 01:26:24;;;;;;;;;;;7.60;99.90;;;;;;5033628;28;1144;-73
2023/01/06 01:28:52;;;;;;;;;;;7.50;99.90;;;;;;5034379;28;1125;-74
2023/01/06 01:31:20;;;;;;;;;;;7.60;99.90;;;;;;5030233;28;1910;-73
2023/01/06 01:33:49;;;;;;;;;;;7.60;99.90;;;;;;5024204;28;1269;-74
2023/01/06 01:36:18;;;;;;;;;;;7.50;99.90;;;;;;5016664;28;852;-74
2023/01/06 01:38:46;;;;;;;;;;;7.60;99.90;;;;;;5025749;28;1805;-73
2023/01/06 01:41:15;;;;;;;;;;;7.70;99.90;;;;;;5020825;28;1085;-74
2023/01/06 01:43:44;;;;;;;;;;;7.60;99.90;;;;;;5016635;28;1523;-75
2023/01/06 01:46:13;;;;;;;;;;;7.60;99.90;;;;;;5023459;28;1013;-75
2023/01/06 01:48:41;;;;;;;;;;;7.70;99.90;;;;;;5016937;28;1445;-73
2023/01/06 01:51:13;;;;;;;;;;;7.80;99.90;;;;;;5026836;28;1965;-73
2023/01/06 01:53:43;;;;;;;;;;;7.70;99.90;;;;;;5027053;28;1525;-73
2023/01/06 01:56:12;;;;;;;;;;;7.80;99.90;;;;;;5037910;28;1082;-74
2023/01/06 01:58:49;;;;;;;;;;;7.80;99.90;;;;;;5028735;28;1072;-73
2023/01/06 02:01:16;;;;;;;;;;;7.80;99.90;;;;;;5024446;28;2225;-73
2023/01/06 02:03:45;;;;;;;;;;;7.80;99.90;;;;;;5026182;28;1397;-74
2023/01/06 02:06:16;;;;;;;;;;;7.80;99.90;;;;;;5024321;28;1223;-74
2023/01/06 02:08:47;;;;;;;;;;;7.90;99.90;;;;;;5014476;28;1065;-74
2023/01/06 02:11:16;;;;;;;;;;;7.90;99.90;;;;;;5027947;28;1910;-74
2023/01/06 02:13:46;;;;;;;;;;;7.90;99.90;;;;;;5015628;28;985;-74
2023/01/06 02:16:19;;;;;;;;;;;7.80;99.90;;;;;;5020087;28;1053;-74
2023/01/06 02:18:51;;;;;;;;;;;7.90;99.90;;;;;;5024667;28;1156;-73
2023/01/06 02:21:39;;;;;;;;;;;8.00;99.90;;;;;;5029737;28;1330;-73
2023/01/06 02:24:25;;;;;;;;;;;7.80;99.90;;;;;;5027489;28;1328;-72
2023/01/06 02:27:02;;;;;;;;;;;7.70;99.90;;;;;;5018012;28;1655;-72
2023/01/06 02:29:43;;;;;;;;;;;7.80;99.90;;;;;;5026395;28;1052;-72
2023/01/06 02:32:17;;;;;;;;;;;7.80;99.90;;;;;;5024866;28;1914;-74
2023/01/06 02:34:51;;;;;;;;;;;7.80;99.90;;;;;;5030497;28;1348;-73
2023/01/06 02:37:28;;;;;;;;;;;7.90;99.90;;;;;;5027612;28;1117;-73
2023/01/06 02:40:06;;;;;;;;;;;7.80;99.90;;;;;;5024142;28;1160;-72
2023/01/06 02:42:38;;;;;;;;;;;7.80;99.90;;;;;;5025502;28;1036;-73
2023/01/06 02:45:11;;;;;;;;;;;7.90;99.90;;;;;;5029758;28;1265;-74
2023/01/06 02:47:44;;;;;;;;;;;7.80;99.90;;;;;;5030235;28;999;-73
2023/01/06 02:50:18;;;;;;;;;;;7.90;99.90;;;;;;5025440;28;1049;-74
2023/01/06 02:52:53;;;;;;;;;;;7.90;99.90;;;;;;5023336;28;1914;-75
2023/01/06 02:55:23;;;;;;;;;;;8.00;99.90;;;;;;5027466;28;1456;-73
2023/01/06 02:57:53;;;;;;;;;;;8.00;99.90;;;;;;5026310;28;1053;-73
2023/01/06 03:00:22;;;;;;;;;;;8.00;99.90;;;;;;5028798;28;1071;-74
2023/01/06 03:02:54;;;;;;;;;;;8.00;99.90;;;;;;5029076;28;1053;-74
2023/01/06 03:05:23;;;;;;;;;;;8.00;99.90;;;;;;5026747;28;1667;-74
2023/01/06 03:07:51;;;;;;;;;;;8.10;99.90;;;;;;5025254;28;1101;-73
2023/01/06 03:10:21;;;;;;;;;;;8.00;99.90;;;;;;5026257;28;1011;-73
2023/01/06 03:12:51;;;;;;;;;;;8.00;99.90;;;;;;5023711;28;2038;-73
2023/01/06 03:15:19;;;;;;;;;;;8.00;99.90;;;;;;5025518;28;1416;-73
2023/01/06 03:17:49;;;;;;;;;;;8.10;99.90;;;;;;5015865;28;1085;-74
2023/01/06 03:20:18;;;;;;;;;;;8.20;99.90;;;;;;5016483;28;1022;-74
2023/01/06 03:22:47;;;;;;;;;;;8.20;99.90;;;;;;5026692;28;1083;-75
2023/01/06 03:25:15;;;;;;;;;;;8.30;99.90;;;;;;5028775;28;1444;-74
2023/01/06 03:27:43;;;;;;;;;;;8.30;99.90;;;;;;5020987;28;1013;-73
2023/01/06 03:30:12;;;;;;;;;;;8.30;99.90;;;;;;5029513;28;1255;-73
2023/01/06 03:32:43;;;;;;;;;;;8.30;99.90;;;;;;5022444;28;1918;-74
2023/01/06 03:35:17;;;;;;;;;;;8.30;99.90;;;;;;5025777;28;1491;-73
2023/01/06 03:37:52;;;;;;;;;;;8.20;99.90;;;;;;5023886;28;935;-74
2023/01/06 03:40:26;;;;;;;;;;;8.30;99.90;;;;;;5025333;28;1097;-75
2023/01/06 03:43:11;;;;;;;;;;;8.20;99.90;;;;;;5023882;28;1005;-75
2023/01/06 03:45:49;;;;;;;;;;;8.20;99.90;;;;;;5023930;28;1451;-74
2023/01/06 03:48:20;;;;;;;;;;;8.20;99.90;;;;;;5022111;28;981;-74
2023/01/06 03:50:49;;;;;;;;;;;8.20;99.90;;;;;;5019632;28;1090;-74
2023/01/06 03:53:28;;;;;;;;;;;8.20;99.90;;;;;;5026080;28;2001;-74
2023/01/06 03:55:59;;;;;;;;;;;8.40;99.90;;;;;;5024500;28;1398;-73
2023/01/06 03:58:27;;;;;;;;;;;8.30;99.90;;;;;;5029867;28;1037;-73
2023/01/06 04:00:55;;;;;;;;;;;8.40;99.90;;;;;;5027683;28;1316;-73
2023/01/06 04:03:24;;;;;;;;;;;8.40;99.90;;;;;;5027314;28;1024;-73
2023/01/06 04:05:51;;;;;;;;;;;8.40;99.90;;;;;;5014659;28;1717;-74
2023/01/06 04:08:20;;;;;;;;;;;8.40;99.90;;;;;;5029797;28;1041;-74
2023/01/06 04:10:48;;;;;;;;;;;8.40;99.90;;;;;;5021909;28;1265;-73
2023/01/06 04:13:14;;;;;;;;;;;8.50;99.90;;;;;;5020683;28;1985;-73
2023/01/06 04:15:42;;;;;;;;;;;8.60;99.90;;;;;;5028105;28;1358;-74
2023/01/06 04:18:10;;;;;;;;;;;8.60;99.90;;;;;;5020172;28;1129;-73
2023/01/06 04:20:37;;;;;;;;;;;8.70;99.90;;;;;;5024797;28;1161;-74
2023/01/06 04:23:05;;;;;;;;;;;8.70;99.90;;;;;;5025365;28;1504;-74
2023/01/06 04:25:34;;;;;;;;;;;8.70;99.90;;;;;;5023873;28;1312;-76
2023/01/06 04:28:01;;;;;;;;;;;8.70;99.90;;;;;;5027296;28;1060;-74
2023/01/06 04:30:29;;;;;;;;;;;8.70;99.90;;;;;;5016172;28;1710;-75
2023/01/06 04:32:57;;;;;;;;;;;8.70;99.90;;;;;;5021111;28;1910;-74
2023/01/06 04:35:24;;;;;;;;;;;8.80;99.90;;;;;;5028153;28;1286;-73
2023/01/06 04:37:52;;;;;;;;;;;8.80;99.90;;;;;;5021423;28;1618;-73
2023/01/06 04:40:20;;;;;;;;;;;8.80;99.90;;;;;;5021362;28;1309;-74
2023/01/06 04:43:04;;;;;;;;;;;8.80;99.90;;;;;;5018375;28;1106;-74
2023/01/06 04:45:31;;;;;;;;;;;8.90;99.90;;;;;;5018919;28;1395;-74
2023/01/06 04:47:59;;;;;;;;;;;8.90;99.90;;;;;;5018776;28;1064;-74
2023/01/06 04:50:27;;;;;;;;;;;8.80;99.90;;;;;;5027772;28;1312;-75
2023/01/06 04:52:54;;;;;;;;;;;8.90;99.90;;;;;;5027327;28;1991;-75
2023/01/06 04:55:22;;;;;;;;;;;9.00;99.90;;;;;;5022034;28;1375;-75
2023/01/06 04:57:51;;;;;;;;;;;9.10;99.90;;;;;;5024145;28;1053;-75
2023/01/06 05:00:19;;;;;;;;;;;9.00;99.90;;;;;;5020499;28;997;-74
2023/01/06 05:02:47;;;;;;;;;;;9.00;99.90;;;;;;5022377;28;1125;-77
2023/01/06 05:05:15;;;;;;;;;;;9.10;99.90;;;;;;5014756;28;1420;-78
2023/01/06 05:07:42;;;;;;;;;;;9.10;99.90;;;;;;5025356;28;1038;-75
2023/01/06 05:10:10;;;;;;;;;;;9.10;99.90;;;;;;5026065;28;1214;-75
2023/01/06 05:12:38;;;;;;;;;;;9.10;99.90;;;;;;5021036;28;1985;-73
2023/01/06 05:15:07;;;;;;;;;;;9.20;99.90;;;;;;5028136;28;1279;-73
2023/01/06 05:17:35;;;;;;;;;;;9.20;99.90;;;;;;5019535;28;1097;-74
2023/01/06 05:20:03;;;;;;;;;;;9.20;99.90;;;;;;5020169;28;1723;-73
2023/01/06 05:22:30;;;;;;;;;;;9.30;99.90;;;;;;5023633;28;1524;-75
2023/01/06 05:24:58;;;;;;;;;;;9.30;99.90;;;;;;5020246;28;1277;-75
2023/01/06 05:27:26;;;;;;;;;;;9.30;99.90;;;;;;5019380;28;1698;-75
2023/01/06 05:29:54;;;;;;;;;;;9.40;99.90;;;;;;5023343;28;1051;-74
2023/01/06 05:32:23;;;;;;;;;;;9.50;99.90;;;;;;5022993;28;1911;-75
2023/01/06 05:34:57;;;;;;;;;;;9.50;99.90;;;;;;5026202;28;1298;-73
2023/01/06 05:37:24;;;;;;;;;;;9.50;99.90;;;;;;5020379;28;1084;-74
2023/01/06 05:39:52;;;;;;;;;;;9.60;99.90;;;;;;5028888;28;1061;-74
2023/01/06 05:42:19;;;;;;;;;;;9.60;99.90;;;;;;5025297;28;1540;-74
2023/01/06 05:44:47;;;;;;;;;;;9.70;99.90;;;;;;5023309;28;1301;-75
2023/01/06 05:47:15;;;;;;;;;;;9.70;99.90;;;;;;5022394;28;1078;-73
2023/01/06 05:49:44;;;;;;;;;;;9.70;99.90;;;;;;5024684;28;1279;-73
2023/01/06 05:52:13;;;;;;;;;;;9.70;99.90;;;;;;5023608;28;1906;-73
2023/01/06 05:54:40;;;;;;;;;;;9.70;99.90;;;;;;5027108;28;1277;-72
2023/01/06 05:57:08;;;;;;;;;;;9.70;99.90;;;;;;5029576;28;1088;-73
2023/01/06 05:59:37;;;;;;;;;;;9.70;99.90;;;;;;5026932;28;1961;-75
2023/01/06 06:02:05;;;;;;;;;;;9.70;99.90;;;;;;5028413;28;1100;-73
2023/01/06 06:04:32;;;;;;;;;;;9.70;99.90;;;;;;5028879;28;1312;-74
2023/01/06 06:07:01;;;;;;;;;;;9.70;99.90;;;;;;5023706;28;1052;-73
2023/01/06 06:09:29;;;;;;;;;;;9.70;99.90;;;;;;5028051;28;1064;-73
2023/01/06 06:11:57;;;;;;;;;;;9.80;99.90;;;;;;5027974;28;1021;-73
2023/01/06 06:14:26;;;;;;;;;;;9.80;99.90;;;;;;5016615;28;1918;-74
2023/01/06 06:16:54;;;;;;;;;;;9.80;99.90;;;;;;5022094;28;1061;-74
2023/01/06 06:19:21;;;;;;;;;;;9.80;99.90;;;;;;5033950;28;1063;-74
2023/01/06 06:21:50;;;;;;;;;;;9.80;99.90;;;;;;5024086;28;1036;-74
2023/01/06 06:24:19;;;;;;;;;;;9.80;99.90;;;;;;5025779;28;1283;-74
2023/01/06 06:26:47;;;;;;;;;;;9.80;99.90;;;;;;5027003;28;1292;-74
2023/01/06 06:29:14;;;;;;;;;;;9.80;99.90;;;;;;5027763;28;1075;-74
2023/01/06 06:31:43;;;;;;;;;;;9.80;99.90;;;;;;5027997;28;1085;-74
2023/01/06 06:34:12;;;;;;;;;;;9.80;99.90;;;;;;5022406;28;1991;-74
2023/01/06 06:36:40;;;;;;;;;;;9.80;99.90;;;;;;5025725;28;1041;-74
2023/01/06 06:39:07;;;;;;;;;;;9.80;99.90;;;;;;5028862;28;1165;-74
2023/01/06 06:41:36;;;;;;;;;;;9.80;99.90;;;;;;5028264;28;1029;-73
2023/01/06 06:44:04;;;;;;;;;;;9.80;99.90;;;;;;5024427;28;1272;-73
2023/01/06 06:46:32;;;;;;;;;;;9.80;99.90;;;;;;5026314;28;1347;-74
2023/01/06 06:48:59;;;;;;;;;;;9.80;99.90;;;;;;5025182;28;1033;-74
2023/01/06 06:51:29;;;;;;;;;;;9.80;99.90;;;;;;5026677;28;1413;-74
2023/01/06 06:53:57;;;;;;;;;;;9.80;99.90;;;;;;5024593;28;1989;-76
2023/01/06 06:56:24;;;;;;;;;;;9.80;99.90;;;;;;5025518;28;1484;-75
2023/01/06 06:58:53;;;;;;;;;;;9.90;99.90;;;;;;5018447;28;1492;-74
2023/01/06 07:01:21;;;;;;;;;;;9.90;99.90;;;;;;5015721;28;1082;-74
2023/01/06 07:03:49;;;;;;;;;;;9.90;99.90;;;;;;5025168;28;1364;-74
2023/01/06 07:06:18;;;;;;;;;;;9.90;99.90;;;;;;5026450;28;1080;-75
2023/01/06 07:08:47;;;;;;;;;;;9.80;99.90;;;;;;5028036;28;1108;-75
2023/01/06 07:11:14;;;;;;;;;;;9.90;99.90;;;;;;5024222;28;1767;-75
2023/01/06 07:13:42;;;;;;;;;;;9.90;99.90;;;;;;5025994;28;1902;-74
2023/01/06 07:16:11;;;;;;;;;;;9.90;99.90;;;;;;5022726;28;1421;-75
2023/01/06 07:18:39;;;;;;;;;;;9.80;99.90;;;;;;5029027;28;1078;-75
2023/01/06 07:21:07;;;;;;;;;;;9.90;99.90;;;;;;5022908;28;1182;-74
2023/01/06 07:23:34;;;;;;;;;;;9.80;99.90;;;;;;5023479;28;1013;-74
2023/01/06 07:26:02;;;;;;;;;;;9.90;99.90;;;;;;5018737;28;1300;-73
2023/01/06 07:28:31;;;;;;;;;;;9.90;99.90;;;;;;5024237;28;1104;-75
2023/01/06 07:30:58;;;;;;;;;;;10.00;99.90;;;;;;5024412;28;1038;-73
2023/01/06 07:33:28;;;;;;;;;;;9.90;99.90;;;;;;5024990;28;1988;-72
2023/01/06 07:35:56;;;;;;;;;;;10.00;99.90;;;;;;5023206;28;1369;-73
2023/01/06 07:38:24;;;;;;;;;;;9.90;99.90;;;;;;5027240;28;1326;-73
2023/01/06 07:40:52;;;;;;;;;;;9.90;99.90;;;;;;5017792;28;1047;-74
2023/01/06 07:43:20;;;;;;;;;;;10.10;99.90;;;;;;5023342;28;2159;-76
2023/01/06 07:45:47;;;;;;;;;;;10.10;99.90;;;;;;5024483;28;1383;-76
2023/01/06 07:48:15;;;;;;;;;;;10.10;99.90;;;;;;5030220;28;1536;-77
2023/01/06 07:50:44;;;;;;;;;;;10.10;99.90;;;;;;5015584;28;1033;-79
2023/01/06 07:53:12;;;;;;;;;;;10.10;99.90;;;;;;5022022;28;1087;-78
2023/01/06 07:55:39;;;;;;;;;;;10.10;99.90;;;;;;5016146;28;1296;-77
2023/01/06 07:58:08;;;;;;;;;;;10.10;99.90;;;;;;5025320;28;2116;-78
2023/01/06 08:00:35;;;;;;;;;;;10.10;99.90;;;;;;5037286;28;1623;-76
2023/01/06 08:03:04;;;;;;;;;;;10.10;99.90;;;;;;5025921;28;1218;-75
2023/01/06 08:05:31;;;;;;;;;;;10.40;99.90;;;;;;5026336;28;1313;-74
2023/01/06 08:08:00;;;;;;;;;;;10.60;99.90;;;;;;5021309;28;1528;-74
2023/01/06 08:10:28;;;;;;;;;;;10.70;99.90;;;;;;5025279;28;1536;-75
2023/01/06 08:12:55;;;;;;;;;;;10.50;99.90;;;;;;5023354;28;2108;-75
2023/01/06 08:15:23;;;;;;;;;;;10.40;99.90;;;;;;5025128;28;1910;-75
2023/01/06 08:17:52;;;;;;;;;;;10.60;99.90;;;;;;5023041;28;2299;-76
2023/01/06 08:20:19;;;;;;;;;;;10.60;99.90;;;;;;5033837;28;2128;-73
2023/01/06 08:22:47;;;;;;;;;;;10.50;99.90;;;;;;5033484;28;1835;-73
2023/01/06 08:25:16;;;;;;;;;;;10.60;99.90;;;;;;5026937;28;1668;-74
2023/01/06 08:27:44;;;;;;;;;;;10.40;99.90;;;;;;5020008;28;1230;-74
2023/01/06 08:30:12;;;;;;;;;;;10.40;99.90;;;;;;5014905;28;1714;-74
2023/01/06 08:32:39;;;;;;;;;;;10.50;99.90;;;;;;5018679;28;1925;-74
2023/01/06 08:35:07;;;;;;;;;;;10.20;99.90;;;;;;5025047;28;2017;-75
2023/01/06 08:37:35;;;;;;;;;;;10.20;99.90;;;;;;5021519;28;1026;-75
2023/01/06 08:40:03;;;;;;;;;;;10.10;99.90;;;;;;5024763;28;1101;-74
2023/01/06 08:42:36;;;;;;;;;;;10.10;99.90;;;;;;5024627;28;1136;-75
2023/01/06 08:45:04;;;;;;;;;;;10.10;99.90;;;;;;5011401;28;1274;-75
2023/01/06 08:47:32;;;;;;;;;;;10.10;99.90;;;;;;5017710;28;1564;-75
2023/01/06 08:49:59;;;;;;;;;;;10.10;99.90;;;;;;5023511;28;2021;-73
2023/01/06 08:52:27;;;;;;;;;;;10.10;99.90;;;;;;5013263;28;1058;-74
2023/01/06 08:54:55;;;;;;;;;;;10.10;99.90;;;;;;5017348;28;1902;-74
2023/01/06 08:57:22;;;;;;;;;;;10.10;99.90;;;;;;5022792;28;1029;-74
2023/01/06 08:59:51;;;;;;;;;;;10.10;99.90;;;;;;5025603;28;2191;-74
2023/01/06 09:02:19;;;;;;;;;;;10.10;99.90;;;;;;5023086;28;1030;-75
2023/01/06 09:04:47;;;;;;;;;;;10.20;99.90;;;;;;5023507;28;1296;-74
2023/01/06 09:07:15;;;;;;;;;;;10.00;99.90;;;;;;5025513;28;1057;-73
2023/01/06 09:09:43;;;;;;;;;;;10.00;99.90;;;;;;5026175;28;2450;-74
2023/01/06 09:12:13;;;;;;;;;;;10.10;99.90;;;;;;5026207;28;1893;-75
2023/01/06 09:14:41;;;;;;;;;;;10.10;99.90;;;;;;5027210;28;1985;-75
2023/01/06 09:17:11;;;;;;;;;;;10.10;99.90;;;;;;5026559;28;1819;-75
2023/01/06 09:19:39;;;;;;;;;;;10.20;99.90;;;;;;5027705;28;1986;-75
2023/01/06 09:22:08;;;;;;;;;;;10.20;99.90;;;;;;5026348;28;1182;-76
2023/01/06 09:24:36;;;;;;;;;;;10.20;99.90;;;;;;5028325;28;1496;-75
2023/01/06 09:27:04;;;;;;;;;;;10.10;99.90;;;;;;5032122;28;1144;-75
2023/01/06 09:29:31;;;;;;;;;;;10.10;99.90;;;;;;5030704;28;1334;-75
2023/01/06 09:31:59;;;;;;;;;;;10.10;99.90;;;;;;5032048;28;1105;-76
2023/01/06 09:34:28;;;;;;;;;;;10.20;99.90;;;;;;5029307;28;1983;-76
2023/01/06 09:36:56;;;;;;;;;;;10.30;99.90;;;;;;5027590;28;1087;-76
2023/01/06 09:39:23;;;;;;;;;;;10.20;99.90;;;;;;5033640;28;1981;-76
2023/01/06 09:42:02;;;;;;;;;;;10.20;99.90;;;;;;5030828;28;1117;-76
2023/01/06 09:44:31;;;;;;;;;;;10.20;99.90;;;;;;5028621;28;1465;-75
2023/01/06 09:47:03;;;;;;;;;;;10.20;99.90;;;;;;5030719;28;1073;-74
2023/01/06 09:49:37;;;;;;;;;;;10.20;99.90;;;;;;5030313;28;1521;-74
2023/01/06 09:52:07;;;;;;;;;;;10.20;99.90;;;;;;5028378;28;1634;-76
2023/01/06 09:54:39;;;;;;;;;;;10.20;99.90;;;;;;5029136;28;1993;-76
2023/01/06 09:57:10;;;;;;;;;;;10.10;99.90;;;;;;5027465;28;1746;-75
2023/01/06 09:59:42;;;;;;;;;;;10.20;99.90;;;;;;5027918;28;1242;-75
2023/01/06 10:02:13;;;;;;;;;;;10.10;99.90;;;;;;5030476;28;1256;-74
2023/01/06 10:04:43;;;;;;;;;;;10.10;99.90;;;;;;5030910;28;1473;-74
2023/01/06 10:07:14;;;;;;;;;;;10.20;99.90;;;;;;5029964;28;1340;-77
2023/01/06 10:09:48;;;;;;;;;;;10.20;99.90;;;;;;5027989;28;1160;-75
2023/01/06 10:12:27;;;;;;;;;;;10.20;99.90;;;;;;5027885;28;1121;-75
2023/01/06 10:15:01;;;;;;;;;;;10.10;99.90;;;;;;5030487;28;1994;-74
2023/01/06 10:17:46;;;;;;;;;;;10.10;99.90;;;;;;5025340;28;1117;-71
2023/01/06 10:20:25;;;;;;;;;;;10.10;99.90;;;;;;5017174;28;1700;-70
2023/01/06 10:22:57;;;;;;;;;;;10.30;99.90;;;;;;5030111;28;1076;-72
2023/01/06 10:25:31;;;;;;;;;;;10.30;99.90;;;;;;5026196;28;2028;-71
2023/01/06 10:28:02;;;;;;;;;;;10.40;99.90;;;;;;5026427;28;1076;-70
2023/01/06 10:30:33;;;;;;;;;;;10.30;99.90;;;;;;5026540;28;1002;-70
2023/01/06 10:33:09;;;;;;;;;;;10.40;99.90;;;;;;5024862;28;1960;-70
2023/01/06 10:35:38;;;;;;;;;;;10.40;99.90;;;;;;5029847;28;1902;-71
2023/01/06 10:38:09;;;;;;;;;;;10.30;99.90;;;;;;5027537;28;1164;-70
2023/01/06 10:40:37;;;;;;;;;;;10.30;99.90;;;;;;5030984;28;1560;-70
2023/01/06 10:43:06;;;;;;;;;;;10.40;99.90;;;;;;5030862;28;1117;-70
2023/01/06 10:45:34;;;;;;;;;;;10.40;99.90;;;;;;5042698;28;1367;-71
2023/01/06 10:48:03;;;;;;;;;;;10.50;99.90;;;;;;5037214;28;1949;-71
2023/01/06 10:50:33;;;;;;;;;;;10.50;99.90;;;;;;5029767;28;1323;-71
2023/01/06 10:53:02;;;;;;;;;;;10.40;99.90;;;;;;5032579;28;1151;-71
2023/01/06 10:55:38;;;;;;;;;;;10.40;99.90;;;;;;5031032;28;1985;-69
2023/01/06 10:58:25;;;;;;;;;;;10.50;99.90;;;;;;5029920;28;1311;-70
2023/01/06 11:00:56;;;;;;;;;;;10.40;99.90;;;;;;5026833;28;1378;-69
2023/01/06 11:03:24;;;;;;;;;;;10.40;99.90;;;;;;5029890;28;1938;-70
2023/01/06 11:06:02;;;;;;;;;;;10.40;99.90;;;;;;5028338;28;1906;-70
2023/01/06 11:08:32;;;;;;;;;;;10.40;99.90;;;;;;5029867;28;1130;-70
2023/01/06 11:11:00;;;;;;;;;;;10.40;99.90;;;;;;5031831;28;1504;-70
2023/01/06 11:13:29;;;;;;;;;;;10.30;99.90;;;;;;5030658;28;1121;-72
2023/01/06 11:16:02;;;;;;;;;;;10.30;99.90;;;;;;5027171;28;2015;-72
2023/01/06 11:18:31;;;;;;;;;;;10.30;99.90;;;;;;5024333;28;1160;-71
2023/01/06 11:21:07;;;;;;;;;;;10.30;99.90;;;;;;5024274;28;1372;-71
2023/01/06 11:23:36;;;;;;;;;;;10.20;99.90;;;;;;5025195;28;1125;-71
2023/01/06 11:26:11;;;;;;;;;;;10.10;99.90;;;;;;5030434;28;1473;-70
2023/01/06 11:28:39;;;;;;;;;;;10.20;99.90;;;;;;5027377;28;1101;-71
2023/01/06 11:31:09;;;;;;;;;;;10.30;99.90;;;;;;5026417;28;1140;-72
2023/01/06 11:33:38;;;;;;;;;;;10.30;99.90;;;;;;5024930;28;1133;-72
2023/01/06 11:36:08;;;;;;;;;;;10.20;99.90;;;;;;5025537;28;2040;-71
2023/01/06 11:38:50;;;;;;;;;;;10.30;99.90;;;;;;5024894;28;1087;-72
2023/01/06 11:41:23;;;;;;;;;;;10.40;99.90;;;;;;5022019;28;1630;-72
2023/01/06 11:43:51;;;;;;;;;;;10.40;99.90;;;;;;5027029;28;1618;-73
2023/01/06 11:46:22;;;;;;;;;;;10.20;99.90;;;;;;5025252;28;1134;-71
2023/01/06 11:48:55;;;;;;;;;;;10.00;99.90;;;;;;5025740;28;1065;-71
2023/01/06 11:51:31;;;;;;;;;;;9.90;99.90;;;;;;5023665;28;1097;-71
2023/01/06 11:54:01;;;;;;;;;;;10.00;99.90;;;;;;5018793;28;1615;-72
2023/01/06 11:56:28;;;;;;;;;;;9.90;99.90;;;;;;5029687;28;1915;-71
2023/01/06 11:59:00;;;;;;;;;;;9.90;99.90;;;;;;5026927;28;1200;-71
2023/01/06 12:01:32;;;;;;;;;;;10.00;99.90;;;;;;5016444;28;1988;-74
2023/01/06 12:04:04;;;;;;;;;;;10.10;99.90;;;;;;5027119;28;1636;-75
2023/01/06 12:06:33;;;;;;;;;;;9.90;99.90;;;;;;5025585;28;1021;-74
2023/01/06 12:09:05;;;;;;;;;;;9.90;99.90;;;;;;5029111;28;914;-75
2023/01/06 12:11:38;;;;;;;;;;;9.80;99.90;;;;;;5025283;28;989;-75
2023/01/06 12:14:09;;;;;;;;;;;9.80;99.90;;;;;;5025548;28;1257;-76
2023/01/06 12:16:57;;;;;;;;;;;9.70;99.90;;;;;;5023978;28;1981;-73
2023/01/06 12:19:31;;;;;;;;;;;9.80;99.90;;;;;;5027722;28;1698;-73
2023/01/06 12:21:59;;;;;;;;;;;9.80;99.90;;;;;;5023872;28;1002;-74
2023/01/06 12:24:28;;;;;;;;;;;9.90;99.90;;;;;;5022047;28;1265;-73
2023/01/06 12:26:56;;;;;;;;;;;10.00;99.90;;;;;;5025512;28;1630;-74
2023/01/06 12:29:25;;;;;;;;;;;10.10;99.90;;;;;;5022651;28;1416;-72
2023/01/06 12:31:59;;;;;;;;;;;10.30;99.90;;;;;;5018650;28;1694;-72
2023/01/06 12:34:30;;;;;;;;;;;10.20;99.90;;;;;;5024691;28;1697;-74
2023/01/06 12:37:02;;;;;;;;;;;10.30;99.90;;;;;;5025003;28;1967;-73
2023/01/06 12:39:33;;;;;;;;;;;10.20;99.90;;;;;;5028323;28;1678;-76
2023/01/06 12:42:06;;;;;;;;;;;10.20;99.90;;;;;;5021994;28;1666;-73
2023/01/06 12:44:39;;;;;;;;;;;10.30;99.90;;;;;;5025191;28;1499;-75
2023/01/06 12:47:11;;;;;;;;;;;10.20;99.90;;;;;;5023064;28;1037;-74
2023/01/06 12:49:42;;;;;;;;;;;10.10;99.90;;;;;;5027768;28;1085;-73
2023/01/06 12:52:12;;;;;;;;;;;9.90;99.90;;;;;;5030687;28;1700;-74
2023/01/06 12:54:45;;;;;;;;;;;9.80;99.90;;;;;;5027322;28;1374;-76
2023/01/06 12:57:20;;;;;;;;;;;9.90;99.90;;;;;;5034157;28;1910;-77
2023/01/06 12:59:54;;;;;;;;;;;9.70;99.90;;;;;;5027245;28;1128;-75
2023/01/06 13:02:29;;;;;;;;;;;9.90;99.90;;;;;;5025943;28;1097;-73
2023/01/06 13:05:21;;;;;;;;;;;9.60;99.90;;;;;;5023730;28;1362;-74
2023/01/06 13:07:55;;;;;;;;;;;9.60;99.90;;;;;;5009891;28;1242;-75
2023/01/06 13:10:27;;;;;;;;;;;9.60;99.90;;;;;;5023977;28;1668;-75
2023/01/06 13:13:01;;;;;;;;;;;9.50;99.90;;;;;;5016277;28;1148;-75
2023/01/06 13:15:30;;;;;;;;;;;9.60;99.90;;;;;;5014972;28;1267;-74
2023/01/06 13:18:04;;;;;;;;;;;9.50;99.90;;;;;;5022301;28;2008;-73
2023/01/06 13:20:34;;;;;;;;;;;9.60;99.90;;;;;;5025469;28;2063;-74
2023/01/06 13:23:06;;;;;;;;;;;9.50;99.90;;;;;;5022934;28;1056;-73
2023/01/06 13:25:46;;;;;;;;;;;9.50;99.90;;;;;;5015010;28;1352;-74
2023/01/06 13:28:21;;;;;;;;;;;9.40;99.90;;;;;;5026949;28;1009;-75
2023/01/06 13:31:07;;;;;;;;;;;9.50;99.90;;;;;;5030593;28;1298;-75
2023/01/06 13:33:53;;;;;;;;;;;9.40;99.90;;;;;;5020446;28;1400;-73
2023/01/06 13:36:27;;;;;;;;;;;9.40;99.90;;;;;;4992782;28;1992;-73
2023/01/06 13:38:57;;;;;;;;;;;9.30;99.90;;;;;;5025351;28;1022;-73
2023/01/06 13:41:29;;;;;;;;;;;9.20;99.90;;;;;;5025575;28;1277;-74
2023/01/06 13:43:58;;;;;;;;;;;9.20;99.90;;;;;;5013466;28;1288;-73
2023/01/06 13:46:26;;;;;;;;;;;9.20;99.90;;;;;;5020352;28;1001;-72
2023/01/06 13:48:55;;;;;;;;;;;9.30;99.90;;;;;;5021661;28;1511;-75
2023/01/06 13:51:25;;;;;;;;;;;9.30;99.90;;;;;;5019090;28;1679;-74
2023/01/06 13:53:53;;;;;;;;;;;9.30;99.90;;;;;;5021090;28;1697;-74
2023/01/06 13:56:26;;;;;;;;;;;9.40;99.90;;;;;;5023638;28;1516;-75
2023/01/06 13:59:18;;;;;;;;;;;9.40;99.90;;;;;;5022023;28;1891;-75
2023/01/06 14:01:46;;;;;;;;;;;9.40;99.90;;;;;;5006588;28;1630;-73
2023/01/06 14:04:32;;;;;;;;;;;9.50;99.90;;;;;;5013527;28;1319;-74
2023/01/06 14:07:00;;;;;;;;;;;9.50;99.90;;;;;;5022585;28;1033;-73
2023/01/06 14:09:28;;;;;;;;;;;9.60;99.90;;;;;;5022322;28;1092;-73
2023/01/06 14:12:07;;;;;;;;;;;9.50;99.90;;;;;;5023905;28;970;-71
2023/01/06 14:14:37;;;;;;;;;;;9.50;99.90;;;;;;5027711;28;1378;-74
2023/01/06 14:17:05;;;;;;;;;;;9.50;99.90;;;;;;5027038;28;1910;-75
2023/01/06 14:19:34;;;;;;;;;;;9.50;99.90;;;;;;5027131;28;1395;-73
2023/01/06 14:22:13;;;;;;;;;;;9.60;99.90;;;;;;5017531;28;1156;-73
2023/01/06 14:24:42;;;;;;;;;;;9.50;99.90;;;;;;5017578;28;1363;-73
2023/01/06 14:27:12;;;;;;;;;;;9.50;99.90;;;;;;5024512;28;1081;-72
2023/01/06 14:29:47;;;;;;;;;;;9.70;99.90;;;;;;5026432;28;1237;-74
2023/01/06 14:32:42;;;;;;;;;;;9.70;99.90;;;;;;5024967;28;993;-73
2023/01/06 14:35:11;;;;;;;;;;;9.70;99.90;;;;;;4990276;28;1284;-73
2023/01/06 14:37:42;;;;;;;;;;;9.70;99.90;;;;;;5025137;28;1902;-73
2023/01/06 14:40:17;;;;;;;;;;;9.70;99.90;;;;;;5020968;28;1658;-74
2023/01/06 14:42:46;;;;;;;;;;;9.70;99.90;;;;;;5016378;28;1101;-74
2023/01/06 14:45:17;;;;;;;;;;;9.50;99.90;;;;;;5024744;28;1287;-74
2023/01/06 14:47:47;;;;;;;;;;;9.80;99.90;;;;;;5016493;28;1098;-73
2023/01/06 14:50:16;;;;;;;;;;;9.70;99.90;;;;;;5019861;28;1258;-72
2023/01/06 14:52:47;;;;;;;;;;;9.70;99.90;;;;;;5024142;28;1745;-74
2023/01/06 14:55:17;;;;;;;;;;;9.60;99.90;;;;;;5016616;28;1275;-74
2023/01/06 14:57:47;;;;;;;;;;;9.50;99.90;;;;;;5025477;28;1997;-73
2023/01/06 15:00:22;;;;;;;;;;;9.40;99.90;;;;;;5026787;28;1654;-81